Time;durP1;ratioP1;P1;durP2;ratioP2;P2;SDS_P1;SDS_P2;PMS_P1;PMS_P2;Temp;Humidity;BMP_temperature;BMP_pressure;BME280_temperature;BME280_humidity;BME280_pressure;Samples;Min_cycle;Max_cycle;Signal;HPM_P1;HPM_P2
2022/11/21 00:01:44;;;;;;;0.20;0.20;;;;;;;10.34;100.00;92169.28;5053440;28;20017;-34
2022/11/21 00:04:10;;;;;;;0.13;0.13;;;;;;;10.31;100.00;92139.38;5053620;28;20024;-34
2022/11/21 00:06:35;;;;;;;0.13;0.13;;;;;;;10.36;100.00;92177.69;5035932;28;20417;-33
2022/11/21 00:09:01;;;;;;;0.10;0.10;;;;;;;10.29;100.00;92189.59;5061640;28;20024;-35
2022/11/21 00:11:26;;;;;;;0.20;0.20;;;;;;;10.26;100.00;92207.31;5072986;28;20039;-34
2022/11/21 00:13:52;;;;;;;0.40;0.40;;;;;;;10.20;100.00;92217.16;5073114;28;20044;-33
2022/11/21 00:16:17;;;;;;;0.20;0.20;;;;;;;10.22;100.00;92242.84;5068654;28;20024;-33
2022/11/21 00:18:43;;;;;;;0.20;0.20;;;;;;;10.24;100.00;92259.56;5053149;28;20033;-33
2022/11/21 00:21:16;;;;;;;0.20;0.20;;;;;;;10.25;100.00;92291.34;5052990;28;20025;-33
2022/11/21 00:23:42;;;;;;;2.03;0.88;;;;;;;10.35;100.00;92285.88;5035328;28;20497;-33
2022/11/21 00:26:10;;;;;;;0.20;0.20;;;;;;;10.14;100.00;92258.03;5064325;28;20028;-33
2022/11/21 00:28:35;;;;;;;0.20;0.20;;;;;;;10.33;98.96;92286.44;5072770;28;20115;-33
2022/11/21 00:31:01;;;;;;;0.10;0.10;;;;;;;10.32;100.00;92260.16;5053135;28;20029;-33
2022/11/21 00:33:27;;;;;;;0.47;0.47;;;;;;;10.34;100.00;92267.84;5052770;28;20064;-33
2022/11/21 00:35:52;;;;;;;0.57;0.57;;;;;;;10.31;100.00;92269.72;5053158;28;20045;-33
2022/11/21 00:38:18;;;;;;;0.20;0.20;;;;;;;10.22;99.86;92250.41;5052791;28;20404;-33
2022/11/21 00:40:43;;;;;;;0.20;0.20;;;;;;;10.23;100.00;92236.03;5052738;28;20090;-33
2022/11/21 00:43:09;;;;;;;0.20;0.20;;;;;;;10.17;100.00;92216.28;5052537;28;20029;-33
2022/11/21 00:45:35;;;;;;;0.10;0.10;;;;;;;10.19;100.00;92190.88;5052629;28;20027;-33
2022/11/21 00:48:00;;;;;;;0.13;0.13;;;;;;;10.19;100.00;92152.97;5052801;28;20112;-33
2022/11/21 00:50:25;;;;;;;0.13;0.13;;;;;;;10.10;100.00;92106.78;5052563;28;20032;-33
2022/11/21 00:52:55;;;;;;;0.20;0.20;;;;;;;9.99;99.65;92112.84;5052812;28;20500;-33
2022/11/21 00:55:21;;;;;;;0.20;0.20;;;;;;;9.86;97.26;92147.06;5052470;28;20036;-33
2022/11/21 00:57:47;;;;;;;0.20;0.20;;;;;;;9.73;97.04;92163.97;5052750;28;20087;-33
2022/11/21 01:00:13;;;;;;;0.20;0.20;;;;;;;9.71;97.59;92157.59;5052405;28;20025;-33
2022/11/21 01:02:38;;;;;;;0.17;0.17;;;;;;;9.71;99.67;92165.84;5052562;28;20031;-33
2022/11/21 01:05:04;;;;;;;0.20;0.20;;;;;;;9.68;99.98;92170.47;5034190;28;20063;-33
2022/11/21 01:07:29;;;;;;;0.10;0.10;;;;;;;9.68;100.00;92167.00;5052194;28;20148;-33
2022/11/21 01:09:55;;;;;;;0.20;0.20;;;;;;;9.75;99.67;92166.88;5068319;28;20032;-33
2022/11/21 01:12:21;;;;;;;0.20;0.20;;;;;;;9.77;98.53;92161.53;5069066;28;20056;-33
2022/11/21 01:14:46;;;;;;;0.20;0.20;;;;;;;9.70;98.99;92156.16;5052223;28;20029;-33
2022/11/21 01:17:11;;;;;;;0.20;0.20;;;;;;;9.73;99.95;92152.97;5052098;28;20036;-33
2022/11/21 01:19:37;;;;;;;0.28;0.28;;;;;;;9.75;97.89;92144.84;5052082;28;20033;-33
2022/11/21 01:22:02;;;;;;;0.10;0.10;;;;;;;9.77;97.45;92158.03;5051936;28;20032;-33
2022/11/21 01:24:28;;;;;;;0.20;0.20;;;;;;;9.68;98.68;92156.69;5051869;28;20025;-33
2022/11/21 01:26:54;;;;;;;0.20;0.20;;;;;;;9.83;98.00;92150.94;5069566;28;20020;-33
2022/11/21 01:29:19;;;;;;;0.20;0.20;;;;;;;9.88;96.80;92135.44;5065399;28;20021;-32
2022/11/21 01:31:45;;;;;;;0.10;0.10;;;;;;;9.83;98.70;92130.94;5052096;28;20033;-33
2022/11/21 01:34:11;;;;;;;0.20;0.20;;;;;;;9.90;99.05;92133.56;5051742;28;20028;-33
2022/11/21 01:36:36;;;;;;;0.20;0.20;;;;;;;9.89;99.19;92134.16;5051677;28;20122;-33
2022/11/21 01:39:04;;;;;;;0.20;0.20;;;;;;;9.93;100.00;92134.47;5051956;28;20028;-33
2022/11/21 01:41:35;;;;;;;0.20;0.20;;;;;;;9.95;99.84;92123.56;5051797;28;20397;-33
2022/11/21 01:44:17;;;;;;;0.20;0.20;;;;;;;9.87;100.00;92117.47;5051528;28;20029;-33
2022/11/21 01:46:43;;;;;;;0.10;0.10;;;;;;;9.90;100.00;92111.53;5051445;28;20025;-33
2022/11/21 01:49:12;;;;;;;0.17;0.17;;;;;;;9.94;99.55;92111.09;5051564;28;20079;-33
2022/11/21 01:51:47;;;;;;;0.20;0.20;;;;;;;9.96;99.36;92103.00;5051245;28;20029;-33
2022/11/21 01:54:15;;;;;;;0.13;0.13;;;;;;;10.03;98.78;92101.41;5051361;28;20036;-33
2022/11/21 01:57:03;;;;;;;0.20;0.20;;;;;;;9.99;99.25;92107.34;5051351;28;20036;-32
2022/11/21 01:59:33;;;;;;;0.10;0.10;;;;;;;9.99;98.86;92117.63;5033295;28;20029;-33
2022/11/21 02:02:01;;;;;;;0.20;0.20;;;;;;;9.95;99.69;92112.53;5051476;28;20037;-33
2022/11/21 02:04:29;;;;;;;0.20;0.20;;;;;;;9.88;100.00;92111.38;5033310;28;20028;-33
2022/11/21 02:06:55;;;;;;;0.20;0.20;;;;;;;9.86;100.00;92100.19;5051180;28;20024;-33
2022/11/21 02:09:22;;;;;;;0.38;0.38;;;;;;;9.99;100.00;92099.06;5035134;28;20094;-33
2022/11/21 02:11:54;;;;;;;0.10;0.10;;;;;;;9.95;100.00;92098.75;5050696;28;20025;-33
2022/11/21 02:14:19;;;;;;;0.20;0.20;;;;;;;10.00;99.36;92108.06;5033194;28;20037;-33
2022/11/21 02:16:45;;;;;;;0.10;0.10;;;;;;;9.93;97.26;92096.59;5050494;28;20031;-33
2022/11/21 02:19:34;;;;;;;0.10;0.10;;;;;;;9.99;95.89;92090.78;5050776;28;20556;-33
2022/11/21 02:22:06;;;;;;;0.13;0.13;;;;;;;9.92;95.66;92097.16;5051091;28;20025;-33
2022/11/21 02:24:45;;;;;;;0.20;0.20;;;;;;;9.83;97.55;92095.81;5033361;28;20032;-33
2022/11/21 02:27:10;;;;;;;0.20;0.20;;;;;;;9.92;98.63;92102.66;5033270;28;20417;-33
2022/11/21 02:29:37;;;;;;;0.40;0.40;;;;;;;9.96;98.76;92103.00;5059099;28;20039;-33
2022/11/21 02:32:07;;;;;;;0.17;0.17;;;;;;;10.00;99.31;92095.00;5053086;28;20037;-33
2022/11/21 02:34:32;;;;;;;0.10;0.10;;;;;;;10.06;98.99;92106.47;5070853;28;20032;-33
2022/11/21 02:36:58;;;;;;;0.30;0.30;;;;;;;9.99;98.45;92096.31;5070558;28;20486;-33
2022/11/21 02:39:33;;;;;;;4.95;2.05;;;;;;;10.09;98.68;92088.06;5070584;28;20105;-33
2022/11/21 02:42:04;;;;;;;0.20;0.20;;;;;;;10.13;96.90;92082.88;5070938;28;20016;-33
2022/11/21 02:44:39;;;;;;;0.20;0.20;;;;;;;9.97;97.62;92098.19;5070925;28;20028;-33
2022/11/21 02:47:04;;;;;;;0.17;0.17;;;;;;;9.95;97.95;92093.25;5043792;28;20503;-33
2022/11/21 02:49:39;;;;;;;0.20;0.20;;;;;;;9.85;98.82;92087.00;5050264;28;20037;-33
2022/11/21 02:52:04;;;;;;;0.13;0.13;;;;;;;9.79;99.08;92087.25;5050299;28;20040;-33
2022/11/21 02:54:30;;;;;;;0.20;0.20;;;;;;;9.75;98.60;92088.97;5050564;28;20029;-33
2022/11/21 02:56:56;;;;;;;0.20;0.20;;;;;;;9.72;98.70;92093.63;5050261;28;20040;-33
2022/11/21 02:59:22;;;;;;;0.32;0.32;;;;;;;9.70;99.39;92087.25;5050445;28;20120;-33
2022/11/21 03:01:47;;;;;;;0.10;0.10;;;;;;;9.72;99.59;92093.63;5050518;28;20025;-33
2022/11/21 03:04:13;;;;;;;0.20;0.20;;;;;;;9.76;99.71;92087.69;5050566;28;20473;-33
2022/11/21 03:06:38;;;;;;;0.10;0.10;;;;;;;9.74;99.82;92071.75;5067627;28;20035;-33
2022/11/21 03:09:04;;;;;;;0.57;0.57;;;;;;;9.79;96.24;92067.97;5061263;28;20033;-33
2022/11/21 03:11:29;;;;;;;0.20;0.20;;;;;;;9.74;94.55;92071.00;5050155;28;20068;-33
2022/11/21 03:13:55;;;;;;;0.20;0.20;;;;;;;9.71;92.49;92067.38;5050098;28;20053;-33
2022/11/21 03:16:20;;;;;;;0.20;0.20;;;;;;;9.65;92.71;92064.16;5050284;28;20040;-33
2022/11/21 03:18:45;;;;;;;0.20;0.20;;;;;;;9.62;92.28;92054.28;5050383;28;20029;-33
2022/11/21 03:21:11;;;;;;;0.10;0.10;;;;;;;9.58;92.68;92059.50;5049834;28;20017;-33
2022/11/21 03:23:36;;;;;;;0.68;0.68;;;;;;;9.55;93.25;92054.44;5049910;28;20033;-33
2022/11/21 03:26:02;;;;;;;0.88;0.82;;;;;;;9.59;95.47;92040.94;5060498;28;20024;-33
2022/11/21 03:28:27;;;;;;;0.17;0.17;;;;;;;9.62;96.52;92037.03;5074368;28;20025;-33
2022/11/21 03:30:53;;;;;;;0.20;0.20;;;;;;;9.64;95.94;92035.16;5054791;28;20386;-33
2022/11/21 03:33:18;;;;;;;0.57;0.57;;;;;;;9.57;96.41;92027.03;5053819;28;20025;-33
2022/11/21 03:35:43;;;;;;;0.10;0.10;;;;;;;9.42;98.11;92030.03;5053929;28;20025;-33
2022/11/21 03:38:09;;;;;;;0.20;0.20;;;;;;;9.35;98.74;92031.59;5054172;28;20104;-33
2022/11/21 03:40:34;;;;;;;0.20;0.20;;;;;;;9.33;99.52;92027.97;5054182;28;20086;-33
2022/11/21 03:43:07;;;;;;;0.20;0.20;;;;;;;9.30;99.69;92023.59;5036384;28;20394;-33
2022/11/21 03:45:32;;;;;;;0.20;0.20;;;;;;;9.23;99.76;92019.66;5053834;28;20024;-33
2022/11/21 03:47:58;;;;;;;0.20;0.20;;;;;;;9.28;100.00;92026.19;5053661;28;20444;-33
2022/11/21 03:50:23;;;;;;;0.20;0.20;;;;;;;9.29;99.80;92024.91;5054001;28;20029;-33
2022/11/21 03:52:49;;;;;;;0.20;0.20;;;;;;;9.27;99.83;92024.75;5053899;28;20032;-33
2022/11/21 03:55:14;;;;;;;0.20;0.20;;;;;;;9.31;98.13;92023.03;5053691;28;20032;-33
2022/11/21 03:57:39;;;;;;;0.65;0.55;;;;;;;9.43;94.88;92018.44;5053853;28;20033;-33
2022/11/21 04:00:05;;;;;;;0.13;0.13;;;;;;;9.48;90.79;92011.91;5053603;28;20033;-33
2022/11/21 04:02:31;;;;;;;0.20;0.20;;;;;;;9.44;90.89;92019.16;5067811;28;20424;-33
2022/11/21 04:04:56;;;;;;;0.20;0.20;;;;;;;9.51;92.13;92029.31;5073504;28;20039;-33
2022/11/21 04:07:22;;;;;;;0.20;0.20;;;;;;;9.53;89.25;92021.91;5073334;28;20025;-33
2022/11/21 04:09:47;;;;;;;0.20;0.20;;;;;;;9.54;88.59;92017.88;5058734;28;20035;-33
2022/11/21 04:12:13;;;;;;;0.20;0.20;;;;;;;9.59;90.91;92024.41;5053249;28;20040;-33
2022/11/21 04:14:38;;;;;;;0.20;0.20;;;;;;;9.53;90.72;92010.19;5053554;28;20017;-33
2022/11/21 04:17:03;;;;;;;0.20;0.20;;;;;;;9.58;91.50;92017.44;5053519;28;20473;-33
2022/11/21 04:19:29;;;;;;;1.08;0.75;;;;;;;9.62;93.13;92023.97;5053029;28;20493;-33
2022/11/21 04:21:54;;;;;;;0.20;0.20;;;;;;;9.58;93.57;92028.47;5053498;28;20024;-33
2022/11/21 04:24:20;;;;;;;0.20;0.20;;;;;;;9.60;93.90;92034.13;5053289;28;20469;-33
2022/11/21 04:26:45;;;;;;;0.20;0.20;;;;;;;9.74;92.97;92033.16;5069551;28;20484;-33
2022/11/21 04:29:10;;;;;;;0.43;0.43;;;;;;;9.69;92.79;92022.41;5067660;28;20032;-33
2022/11/21 04:31:36;;;;;;;0.15;0.15;;;;;;;9.76;92.24;92018.78;5052933;28;20025;-33
2022/11/21 04:34:01;;;;;;;0.35;0.35;;;;;;;9.72;92.16;92012.97;5052843;28;20021;-33
2022/11/21 04:36:27;;;;;;;0.20;0.20;;;;;;;9.70;92.51;92016.31;5053133;28;20028;-33
2022/11/21 04:38:52;;;;;;;0.22;0.22;;;;;;;9.61;93.31;92021.81;5052074;28;20029;-33
2022/11/21 04:41:18;;;;;;;1.05;1.00;;;;;;;9.56;93.80;92014.53;5052670;28;20028;-33
2022/11/21 04:43:43;;;;;;;0.20;0.20;;;;;;;9.54;94.04;92017.16;5052705;28;20033;-33
2022/11/21 04:46:09;;;;;;;0.10;0.10;;;;;;;9.47;94.22;92023.50;5052472;28;20029;-33
2022/11/21 04:48:34;;;;;;;0.20;0.20;;;;;;;9.46;94.88;92024.81;5052595;28;20033;-33
2022/11/21 04:50:59;;;;;;;2.20;0.55;;;;;;;9.48;94.56;92019.47;5052700;28;20035;-33
2022/11/21 04:53:25;;;;;;;0.20;0.20;;;;;;;9.48;94.87;92011.19;5052761;28;20059;-33
2022/11/21 04:55:50;;;;;;;0.10;0.10;;;;;;;9.34;94.55;92001.84;5052513;28;20025;-33
2022/11/21 04:58:16;;;;;;;0.20;0.20;;;;;;;9.21;95.00;92016.03;5062659;28;20107;-33
2022/11/21 05:00:41;;;;;;;0.20;0.20;;;;;;;9.06;95.26;92017.72;5072726;28;20023;-33
2022/11/21 05:03:07;;;;;;;0.20;0.20;;;;;;;9.03;95.71;92018.16;5072252;28;20029;-33
2022/11/21 05:05:32;;;;;;;0.20;0.20;;;;;;;8.91;95.73;92017.22;5072560;28;20081;-33
2022/11/21 05:07:58;;;;;;;0.20;0.20;;;;;;;8.94;95.93;92027.78;5072582;28;20500;-33
2022/11/21 05:10:24;;;;;;;0.20;0.20;;;;;;;8.86;96.72;92026.44;5052448;28;20409;-33
2022/11/21 05:15:43;;;;;;;0.20;0.20;;;;;;;8.88;96.68;92046.59;5052469;28;20040;-33
2022/11/21 05:18:09;;;;;;;0.15;0.15;;;;;;;8.81;97.08;92050.19;5052358;28;20485;-33
2022/11/21 05:20:34;;;;;;;0.20;0.20;;;;;;;8.80;96.78;92050.75;5052070;28;20102;-33
2022/11/21 05:23:00;;;;;;;0.20;0.20;;;;;;;8.73;97.42;92059.81;5052284;28;20103;-33
2022/11/21 05:25:25;;;;;;;0.45;0.45;;;;;;;8.70;98.21;92058.97;5051580;28;20606;-33
2022/11/21 05:27:50;;;;;;;0.20;0.20;;;;;;;8.72;97.99;92064.63;5051905;28;20056;-33
2022/11/21 05:30:16;;;;;;;0.20;0.20;;;;;;;8.68;98.16;92064.31;5033952;28;20052;-33
2022/11/21 05:32:42;;;;;;;0.20;0.20;;;;;;;8.67;97.85;92056.63;5051165;28;20090;-33
2022/11/21 05:35:09;;;;;;;0.20;0.20;;;;;;;8.66;98.32;92066.91;5051622;28;20029;-33
2022/11/21 05:37:35;;;;;;;0.20;0.20;;;;;;;8.81;97.69;92046.72;5052035;28;20501;-33
2022/11/21 05:40:00;;;;;;;0.20;0.20;;;;;;;8.83;96.74;92047.59;5051872;28;20029;-33
2022/11/21 05:45:10;;;;;;;0.20;0.20;;;;;;;8.77;98.78;92065.66;5051760;28;20060;-33
2022/11/21 05:47:36;;;;;;;1.52;1.50;;;;;;;8.72;98.63;92061.88;5064814;28;20468;-33
2022/11/21 05:50:01;;;;;;;0.50;0.50;;;;;;;8.77;98.58;92063.63;5070538;28;20488;-33
2022/11/21 05:52:27;;;;;;;0.45;0.45;;;;;;;8.75;98.26;92057.97;5071340;28;20047;-33
2022/11/21 05:54:52;;;;;;;0.20;0.20;;;;;;;8.68;98.43;92061.56;5057996;28;20033;-33
2022/11/21 05:57:18;;;;;;;1.35;1.25;;;;;;;8.69;98.58;92062.28;5051145;28;20028;-33
2022/11/21 05:59:43;;;;;;;0.30;0.30;;;;;;;8.86;97.77;92078.75;5051289;28;20028;-33
2022/11/21 06:04:53;;;;;;;0.60;0.60;;;;;;;8.87;97.19;92082.97;5051515;28;20093;-33
2022/11/21 06:07:19;;;;;;;0.57;0.57;;;;;;;8.93;96.92;92094.44;5033224;28;20033;-33
2022/11/21 06:09:44;;;;;;;0.30;0.30;;;;;;;9.00;96.07;92096.38;5065365;28;20036;-33
2022/11/21 06:12:09;;;;;;;0.30;0.30;;;;;;;8.97;96.32;92089.97;5070855;28;20040;-33
2022/11/21 06:14:35;;;;;;;1.55;0.93;;;;;;;9.10;96.52;92095.13;5070947;28;20024;-33
2022/11/21 06:17:00;;;;;;;0.20;0.20;;;;;;;9.11;96.48;92096.56;5070833;28;20032;-33
2022/11/21 06:19:26;;;;;;;0.40;0.40;;;;;;;9.19;96.82;92104.72;5070840;28;20043;-33
2022/11/21 06:21:51;;;;;;;0.88;0.88;;;;;;;9.32;96.32;92107.09;5070815;28;20028;-33
2022/11/21 06:24:17;;;;;;;0.22;0.22;;;;;;;9.35;95.70;92108.72;5070822;28;20035;-33
2022/11/21 06:26:42;;;;;;;2.17;1.05;;;;;;;9.39;95.38;92113.81;5070422;28;20032;-33
2022/11/21 06:29:10;;;;;;;0.40;0.40;;;;;;;9.52;95.22;92110.66;5066259;28;20017;-33
2022/11/21 06:31:35;;;;;;;0.40;0.40;;;;;;;9.67;94.28;92122.19;5050747;28;20047;-33
2022/11/21 06:34:01;;;;;;;0.20;0.20;;;;;;;9.67;93.56;92111.16;5050661;28;20024;-33
2022/11/21 06:36:26;;;;;;;0.55;0.55;;;;;;;9.80;93.46;92132.09;5050612;28;20032;-33
2022/11/21 06:38:53;;;;;;;0.20;0.20;;;;;;;9.98;93.66;92147.25;5050511;28;20037;-33
2022/11/21 06:41:21;;;;;;;0.20;0.20;;;;;;;9.89;92.26;92131.41;5050425;28;20017;-33
2022/11/21 06:43:47;;;;;;;0.20;0.20;;;;;;;9.91;94.23;92142.56;5050868;28;20100;-33
2022/11/21 06:46:13;;;;;;;0.73;0.73;;;;;;;10.04;93.58;92135.94;5050394;28;20104;-33
2022/11/21 06:48:39;;;;;;;0.68;0.68;;;;;;;10.26;92.82;92148.66;5050670;28;20032;-33
2022/11/21 06:51:13;;;;;;;0.28;0.28;;;;;;;10.31;90.51;92148.34;5063102;28;20033;-33
2022/11/21 06:53:38;;;;;;;0.47;0.47;;;;;;;10.45;90.13;92160.44;5052809;28;20030;-33
2022/11/21 06:56:04;;;;;;;0.57;0.57;;;;;;;10.63;91.34;92156.22;5070355;28;20024;-33
2022/11/21 06:58:30;;;;;;;0.30;0.30;;;;;;;10.78;90.01;92160.03;5070510;28;20233;-33
2022/11/21 07:00:56;;;;;;;0.20;0.20;;;;;;;10.79;89.08;92147.66;5070286;28;20028;-33
2022/11/21 07:03:22;;;;;;;1.38;0.88;;;;;;;10.83;88.60;92154.19;5070011;28;20028;-33
2022/11/21 07:05:48;;;;;;;1.33;1.23;;;;;;;10.86;89.84;92157.84;5070196;28;20035;-33
2022/11/21 07:08:14;;;;;;;0.30;0.30;;;;;;;10.75;90.10;92145.34;5068105;28;20497;-33
2022/11/21 07:10:39;;;;;;;1.02;1.02;;;;;;;10.90;90.72;92160.88;5050033;28;20032;-33
2022/11/21 07:13:20;;;;;;;0.52;0.52;;;;;;;10.88;89.70;92169.75;5049987;28;20053;-33
2022/11/21 07:15:52;;;;;;;0.30;0.30;;;;;;;10.80;89.48;92155.38;5050323;28;20049;-33
2022/11/21 07:18:27;;;;;;;0.30;0.30;;;;;;;11.04;89.97;92181.25;5049955;28;20025;-33
2022/11/21 07:20:57;;;;;;;0.85;0.85;;;;;;;10.98;87.89;92178.03;5050335;28;20032;-33
2022/11/21 07:23:22;;;;;;;0.30;0.30;;;;;;;10.99;89.34;92182.97;5049882;28;20036;-33
2022/11/21 07:25:48;;;;;;;2.97;2.78;;;;;;;11.05;90.06;92188.19;5058649;28;20028;-33
2022/11/21 07:28:13;;;;;;;2.97;2.10;;;;;;;11.17;87.58;92191.84;5069843;28;20032;-33
2022/11/21 07:30:39;;;;;;;5.05;1.50;;;;;;;11.21;85.65;92195.63;5052875;28;20036;-33
2022/11/21 07:33:05;;;;;;;2.83;1.75;;;;;;;11.30;86.26;92196.91;5050158;28;20029;-33
2022/11/21 07:35:32;;;;;;;0.30;0.30;;;;;;;11.26;85.17;92211.16;5049755;28;20036;-33
2022/11/21 07:37:57;;;;;;;0.20;0.20;;;;;;;11.18;83.26;92215.38;5050182;28;20413;-33
2022/11/21 07:40:23;;;;;;;0.95;0.95;;;;;;;11.08;83.11;92214.66;5049723;28;20029;-33
2022/11/21 07:42:48;;;;;;;0.30;0.30;;;;;;;11.20;83.58;92245.91;5049792;28;20116;-33
2022/11/21 07:45:14;;;;;;;0.20;0.20;;;;;;;11.17;82.52;92256.13;5049713;28;20154;-33
2022/11/21 07:47:40;;;;;;;3.83;2.67;;;;;;;11.01;83.42;92265.25;5051572;28;20044;-33
2022/11/21 07:50:07;;;;;;;1.65;1.00;;;;;;;10.44;83.03;92246.53;5049671;28;20552;-33
2022/11/21 07:52:32;;;;;;;0.20;0.20;;;;;;;10.38;83.59;92287.47;5031848;28;20039;-33
2022/11/21 07:54:58;;;;;;;1.17;1.05;;;;;;;9.99;85.71;92289.31;5050017;28;20480;-33
2022/11/21 07:57:23;;;;;;;0.20;0.20;;;;;;;9.73;85.53;92287.28;5049547;28;20386;-33
2022/11/21 07:59:49;;;;;;;7.20;1.15;;;;;;;9.36;87.39;92266.44;5049626;28;20017;-33
2022/11/21 08:02:22;;;;;;;0.20;0.20;;;;;;;9.28;86.96;92298.84;5049858;28;20025;-33
2022/11/21 08:04:48;;;;;;;0.30;0.30;;;;;;;9.22;88.29;92295.63;5049610;28;20027;-33
2022/11/21 08:07:15;;;;;;;1.23;1.23;;;;;;;9.10;90.31;92292.63;5049735;28;20021;-33
2022/11/21 08:09:40;;;;;;;1.95;1.85;;;;;;;9.32;89.94;92310.94;5049446;28;20025;-33
2022/11/21 08:12:06;;;;;;;0.30;0.30;;;;;;;9.35;89.57;92307.03;5049474;28;20099;-33
2022/11/21 08:14:32;;;;;;;0.65;0.65;;;;;;;9.35;87.13;92309.81;5051886;28;20048;-33
2022/11/21 08:16:58;;;;;;;0.20;0.20;;;;;;;9.69;86.08;92328.31;5053265;28;20022;-33
2022/11/21 08:19:23;;;;;;;0.65;0.65;;;;;;;9.68;85.18;92344.09;5053062;28;20024;-33
2022/11/21 08:21:49;;;;;;;0.30;0.30;;;;;;;9.92;85.30;92340.50;5053181;28;20139;-34
2022/11/21 08:24:16;;;;;;;0.40;0.40;;;;;;;10.11;83.19;92334.41;5053118;28;20499;-33
2022/11/21 08:26:42;;;;;;;0.20;0.20;;;;;;;10.18;83.39;92338.38;5069339;28;20031;-33
2022/11/21 08:29:09;;;;;;;0.20;0.20;;;;;;;10.52;82.60;92338.97;5068477;28;20512;-33
2022/11/21 08:31:36;;;;;;;0.20;0.20;;;;;;;10.82;81.24;92350.81;5053237;28;20475;-33
2022/11/21 08:34:01;;;;;;;0.20;0.20;;;;;;;11.25;81.39;92350.63;5053242;28;20023;-34
2022/11/21 08:36:26;;;;;;;1.35;1.35;;;;;;;11.38;77.96;92358.50;5053231;28;20021;-34
2022/11/21 08:38:52;;;;;;;0.20;0.20;;;;;;;10.98;78.73;92365.84;5053138;28;20017;-33
2022/11/21 08:44:02;;;;;;;0.22;0.22;;;;;;;10.11;79.60;92386.06;5069556;28;20523;-33
2022/11/21 08:46:28;;;;;;;0.30;0.30;;;;;;;9.83;81.53;92387.31;5069257;28;20029;-33
2022/11/21 08:48:54;;;;;;;0.30;0.30;;;;;;;9.48;83.43;92386.59;5052989;28;20071;-33
2022/11/21 08:51:20;;;;;;;0.28;0.28;;;;;;;9.52;82.93;92384.16;5052470;28;20497;-33
2022/11/21 08:53:46;;;;;;;0.20;0.20;;;;;;;9.25;84.04;92379.88;5052543;28;20552;-33
2022/11/21 08:56:11;;;;;;;0.20;0.20;;;;;;;9.03;83.90;92382.25;5052499;28;20100;-33
2022/11/21 08:58:37;;;;;;;0.20;0.20;;;;;;;8.83;83.73;92374.38;5052439;28;20031;-33
2022/11/21 09:01:02;;;;;;;0.20;0.20;;;;;;;8.71;85.22;92389.88;5052701;28;20017;-33
2022/11/21 09:03:27;;;;;;;0.30;0.30;;;;;;;8.81;86.40;92388.72;5052594;28;20052;-33
2022/11/21 09:05:55;;;;;;;0.40;0.40;;;;;;;9.03;85.32;92385.00;5052297;28;20481;-33
2022/11/21 09:08:21;;;;;;;0.20;0.20;;;;;;;9.00;84.28;92397.16;5052198;28;20460;-33
2022/11/21 09:10:46;;;;;;;0.20;0.20;;;;;;;9.25;84.89;92396.41;5052423;28;20013;-33
2022/11/21 09:13:12;;;;;;;1.02;1.02;;;;;;;9.84;82.64;92397.75;5051957;28;20678;-34
2022/11/21 09:18:21;;;;;;;0.10;0.10;;;;;;;10.69;74.87;92404.41;5052380;28;20031;-33
2022/11/21 09:20:47;;;;;;;0.20;0.20;;;;;;;10.78;76.62;92409.22;5051998;28;20021;-33
2022/11/21 09:23:14;;;;;;;0.57;0.57;;;;;;;10.61;74.09;92406.53;5051822;28;20021;-33
2022/11/21 09:25:40;;;;;;;0.20;0.20;;;;;;;11.22;74.84;92420.13;5059501;28;20423;-33
2022/11/21 09:28:08;;;;;;;0.43;0.43;;;;;;;12.06;71.01;92415.28;5071790;28;20484;-33
2022/11/21 09:30:34;;;;;;;1.00;0.75;;;;;;;12.65;68.46;92422.19;5055594;28;20421;-33
2022/11/21 09:33:00;;;;;;;0.20;0.20;;;;;;;12.95;65.40;92410.44;5051873;28;20689;-33
2022/11/21 09:35:26;;;;;;;0.20;0.20;;;;;;;12.92;64.31;92417.16;5034006;28;20033;-33
2022/11/21 09:37:51;;;;;;;0.50;0.50;;;;;;;13.63;62.49;92423.41;5052223;28;20029;-34
2022/11/21 09:40:17;;;;;;;0.75;0.75;;;;;;;13.80;61.40;92413.34;5068385;28;20440;-34
2022/11/21 09:42:58;;;;;;;0.20;0.20;;;;;;;13.81;60.90;92412.78;5071863;28;20025;-34
2022/11/21 09:45:31;;;;;;;0.10;0.10;;;;;;;13.41;61.07;92421.91;5071495;28;20025;-33
2022/11/21 09:47:57;;;;;;;0.13;0.13;;;;;;;13.08;61.67;92421.03;5037958;28;20506;-33
2022/11/21 09:50:33;;;;;;;0.17;0.17;;;;;;;12.87;61.10;92413.38;5033548;28;20061;-33
2022/11/21 09:53:12;;;;;;;0.20;0.20;;;;;;;12.33;63.69;92414.38;5033685;28;20411;-34
2022/11/21 09:55:43;;;;;;;0.20;0.20;;;;;;;12.23;65.88;92413.69;5033692;28;20175;-34
2022/11/21 09:58:36;;;;;;;0.20;0.20;;;;;;;12.20;65.59;92412.81;5033800;28;20041;-33
2022/11/21 10:01:02;;;;;;;0.10;0.10;;;;;;;11.78;64.89;92401.47;5033830;28;20056;-34
2022/11/21 10:03:53;;;;;;;0.20;0.20;;;;;;;11.66;66.77;92411.63;5051123;28;20052;-33
2022/11/21 10:06:35;;;;;;;0.30;0.30;;;;;;;11.78;68.31;92404.25;5046436;28;20517;-33
2022/11/21 10:09:11;;;;;;;0.20;0.20;;;;;;;11.68;67.17;92411.78;5033478;28;20025;-33
2022/11/21 10:14:54;;;;;;;0.20;0.20;;;;;;;11.28;69.91;92418.53;5051365;28;20063;-33
2022/11/21 10:17:22;;;;;;;0.95;0.95;;;;;;;10.95;68.95;92420.19;5033084;28;20071;-33
2022/11/21 10:20:05;;;;;;;0.20;0.20;;;;;;;10.75;70.02;92421.41;5033578;28;20459;-33
2022/11/21 10:22:36;;;;;;;0.20;0.20;;;;;;;10.61;69.16;92425.88;5051148;28;20029;-33
2022/11/21 10:25:12;;;;;;;0.25;0.25;;;;;;;10.51;72.42;92431.31;5053077;28;20039;-33
2022/11/21 10:27:46;;;;;;;0.20;0.20;;;;;;;10.48;72.98;92426.94;5070787;28;20035;-33
2022/11/21 10:30:18;;;;;;;0.95;0.95;;;;;;;10.44;72.15;92423.88;5039426;28;20028;-33
2022/11/21 10:32:46;;;;;;;0.10;0.10;;;;;;;10.25;72.17;92406.47;5050610;28;20032;-33
2022/11/21 10:35:18;;;;;;;0.20;0.20;;;;;;;10.51;69.91;92430.59;5038308;28;20020;-33
2022/11/21 10:37:55;;;;;;;0.35;0.35;;;;;;;10.42;70.24;92434.00;5052203;28;20535;-34
2022/11/21 10:40:39;;;;;;;0.63;0.63;;;;;;;10.28;72.18;92441.19;5052988;28;20043;-33
2022/11/21 10:45:52;;;;;;;0.30;0.30;;;;;;;9.70;72.18;92429.00;5070790;28;20523;-33
2022/11/21 10:48:17;;;;;;;0.20;0.20;;;;;;;9.51;72.71;92443.31;5051798;28;20100;-33
2022/11/21 10:51:12;;;;;;;0.20;0.20;;;;;;;9.33;72.69;92441.13;5050566;28;20547;-33
2022/11/21 10:56:25;;;;;;;0.20;0.20;;;;;;;9.37;74.55;92435.94;5050679;28;20032;-33
2022/11/21 10:59:11;;;;;;;0.20;0.20;;;;;;;9.50;74.60;92430.84;5050277;28;20175;-33
2022/11/21 11:01:36;;;;;;;0.43;0.43;;;;;;;9.66;73.75;92431.41;5032770;28;20028;-33
2022/11/21 11:04:11;;;;;;;0.47;0.47;;;;;;;9.67;72.34;92438.38;5050150;28;20025;-33
2022/11/21 11:06:41;;;;;;;0.20;0.20;;;;;;;9.64;72.57;92434.72;5050525;28;20029;-33
2022/11/21 11:09:28;;;;;;;0.20;0.20;;;;;;;9.35;73.04;92446.78;5049913;28;20032;-33
2022/11/21 11:15:23;;;;;;;;;;;;;;;8.91;75.19;92441.09;4979020;28;20066;-33
2022/11/21 11:17:55;;;;;;;0.20;0.20;;;;;;;8.83;76.33;92441.16;5032671;28;19904;-33
2022/11/21 11:20:39;;;;;;;0.20;0.20;;;;;;;8.82;75.58;92445.19;5050034;28;20043;-33
2022/11/21 11:23:23;;;;;;;3.60;0.65;;;;;;;8.42;77.17;92446.56;5049945;28;20115;-33
2022/11/21 11:25:54;;;;;;;0.20;0.20;;;;;;;8.29;77.48;92451.00;5058767;28;20032;-33
2022/11/21 11:28:22;;;;;;;0.93;0.93;;;;;;;8.31;77.05;92442.97;5069989;28;20048;-33
2022/11/21 11:30:48;;;;;;;0.55;0.55;;;;;;;8.35;76.59;92448.06;5051846;28;20029;-33
2022/11/21 11:33:50;;;;;;;0.35;0.35;;;;;;;8.43;78.50;92454.25;5069789;28;20082;-33
2022/11/21 11:36:27;;;;;;;0.20;0.20;;;;;;;8.54;77.40;92464.81;5017548;28;20044;-33
2022/11/21 11:38:56;;;;;;;0.20;0.20;;;;;;;8.39;77.04;92464.91;5069936;28;20028;-33
2022/11/21 11:47:55;;;;;;;0.30;0.30;;;;;;;8.36;78.61;92455.00;5056413;28;20082;-33
2022/11/21 11:50:45;;;;;;;0.20;0.20;;;;;;;8.51;78.38;92463.19;5053652;28;20032;-33
2022/11/21 11:53:15;;;;;;;0.20;0.20;;;;;;;8.54;74.77;92462.06;5021644;28;20039;-33
2022/11/21 11:55:48;;;;;;;0.30;0.30;;;;;;;8.59;75.70;92454.91;5053641;28;20017;-33
2022/11/21 11:58:36;;;;;;;0.20;0.20;;;;;;;8.65;77.52;92461.66;5035877;28;20025;-33
2022/11/21 12:01:08;;;;;;;0.20;0.20;;;;;;;8.37;75.38;92445.50;5038237;28;20049;-33
2022/11/21 12:03:42;;;;;;;0.20;0.20;;;;;;;8.40;76.34;92463.63;5035731;28;20033;-33
2022/11/21 12:06:25;;;;;;;0.20;0.20;;;;;;;8.40;76.01;92458.13;5053472;28;20497;-33
2022/11/21 12:08:53;;;;;;;0.20;0.20;;;;;;;8.40;75.08;92469.13;5053378;28;20029;-34
2022/11/21 12:12:07;;;;;;;1.15;1.10;;;;;;;8.27;76.67;92445.34;5053434;28;20043;-34
2022/11/21 12:17:41;;;;;;;0.20;0.20;;;;;;;8.43;75.38;92450.75;5053638;28;20048;-33
2022/11/21 12:20:21;;;;;;;0.80;0.80;;;;;;;8.70;75.18;92470.97;5053483;28;20055;-33